Terminal Aerodrome Forecast
Issued by NWS Greer, SC

Home | Current Version | Previous Version | Text Only | Print | Product List | Glossary On
Versions: 1 2 3 4 5 6 7 8 9 10 11 12 13 14 15 16 17 18 19 20 21 22 23 24 25 26 27 28 29 30 31 32 33 34
930
FTUS42 KGSP 251731
TAFAVL
TAF
KAVL 251731Z 2518/2618 20006KT P6SM BKN050
      TEMPO 2520/2523 SHRA BKN040
     FM260200 VRB02KT P6SM BKN250
     FM261600 24004KT P6SM BKN060 PROB30 2616/2618 4SM -TSRA
      BKN050CB=

USA.gov is the U.S. government's official web portal to all federal, state and local government web resources and services.